createdAt,value
2018-08-30T06:31:16.984Z,59.4
2018-08-30T06:31:27.028Z,59.4
2018-08-30T06:32:17.405Z,59.4
2018-08-30T06:33:07.415Z,59.4
2018-08-30T06:33:57.757Z,59.3
2018-08-30T06:34:48.348Z,59.3
2018-08-30T06:35:37.641Z,59.3
2018-08-30T06:36:27.772Z,59.3
2018-08-30T06:37:17.232Z,59.3
2018-08-30T06:38:07.532Z,59.3
2018-08-30T06:38:57.819Z,59.3
2018-08-30T06:39:47.656Z,59.3
2018-08-30T06:40:38.319Z,59.3
2018-08-30T06:41:28.551Z,59.3
2018-08-30T06:42:18.425Z,59.3
2018-08-30T06:43:08.196Z,59.2
2018-08-30T06:43:58.454Z,59.2
2018-08-30T06:44:48.301Z,59.2
2018-08-30T06:45:38.397Z,59.2
2018-08-30T06:46:28.466Z,59.2
2018-08-30T06:47:18.812Z,59.1
2018-08-30T06:48:08.850Z,59.2
2018-08-30T06:48:59.403Z,59.1
2018-08-30T06:49:49.046Z,59.1
2018-08-30T06:50:39.066Z,59.1
2018-08-30T06:51:29.146Z,59.1
2018-08-30T06:52:19.236Z,59.1
2018-08-30T06:53:09.248Z,59.1
2018-08-30T06:53:59.021Z,59.1
2018-08-30T06:54:49.083Z,59.1
2018-08-30T06:55:39.420Z,59.1
2018-08-30T06:56:30.322Z,59
2018-08-30T06:57:19.038Z,59
2018-08-30T06:58:09.653Z,59
2018-08-30T06:58:59.403Z,59
2018-08-30T06:59:49.506Z,59
2018-08-30T07:00:39.277Z,59
2018-08-30T07:01:29.930Z,59
2018-08-30T07:02:19.935Z,59
2018-08-30T07:03:09.458Z,58.9
2018-08-30T07:04:00.200Z,58.9
2018-08-30T07:04:49.655Z,58.9
2018-08-30T07:05:39.782Z,58.9
2018-08-30T07:06:30.275Z,58.9
2018-08-30T07:07:20.055Z,58.9
2018-08-30T07:08:09.976Z,58.9
2018-08-30T07:08:59.888Z,58.9
2018-08-30T07:09:49.953Z,58.9
2018-08-30T07:10:40.315Z,58.9
2018-08-30T07:11:30.641Z,58.9
2018-08-30T07:12:20.455Z,58.8
2018-08-30T07:13:10.492Z,58.8
2018-08-30T07:14:00.927Z,58.8
2018-08-30T07:14:50.812Z,58.8
2018-08-30T07:15:40.967Z,58.8
2018-08-30T07:16:30.767Z,58.8
2018-08-30T07:17:21.329Z,58.8
2018-08-30T07:18:10.352Z,58.8
2018-08-30T07:19:00.939Z,58.8
2018-08-30T07:19:51.017Z,58.8
2018-08-30T07:20:41.064Z,58.8
2018-08-30T07:21:31.452Z,58.8
2018-08-30T07:22:21.494Z,58.7
2018-08-30T07:23:11.584Z,58.7
2018-08-30T07:24:01.862Z,58.7
2018-08-30T07:24:51.401Z,58.7
2018-08-30T07:25:41.784Z,58.7
2018-08-30T07:26:31.235Z,58.7
2018-08-30T07:27:22.127Z,58.6
2018-08-30T07:28:11.989Z,58.6
2018-08-30T07:29:01.774Z,58.6
2018-08-30T07:29:51.563Z,58.6
2018-08-30T07:30:42.124Z,58.6
2018-08-30T07:35:42.520Z,58.5
2018-08-30T07:36:31.846Z,58.5
2018-08-30T07:37:22.857Z,58.5
2018-08-30T07:38:12.238Z,58.5
2018-08-30T07:39:02.536Z,58.5
2018-08-30T07:39:52.563Z,58.5
2018-08-30T07:40:42.339Z,58.5
2018-08-30T07:41:32.986Z,58.5
2018-08-30T07:42:22.753Z,58.4
2018-08-30T07:43:12.801Z,58.4
2018-08-30T07:44:03.407Z,58.4
2018-08-30T07:44:53.478Z,58.4
2018-08-30T07:45:43.315Z,58.4
2018-08-30T07:46:32.790Z,58.4
2018-08-30T07:47:24.241Z,58.4
2018-08-30T07:48:13.485Z,58.4
2018-08-30T07:49:03.558Z,58.4
2018-08-30T07:49:53.618Z,58.4
2018-08-30T07:50:43.761Z,58.4
2018-08-30T07:51:33.757Z,58.3
2018-08-30T07:52:23.532Z,58.3
2018-08-30T07:53:13.891Z,58.3
2018-08-30T07:54:03.937Z,58.3
2018-08-30T07:54:53.981Z,58.3
2018-08-30T07:55:43.772Z,58.3
2018-08-30T07:56:34.148Z,58.3
2018-08-30T07:57:24.261Z,58.3
2018-08-30T07:58:13.997Z,58.3
2018-08-30T07:59:03.760Z,58.3
2018-08-30T07:59:54.491Z,58.3
2018-08-30T08:00:43.597Z,58.3
2018-08-30T08:01:34.520Z,58.3
2018-08-30T08:02:23.996Z,58.2
2018-08-30T08:03:14.607Z,58.2
2018-08-30T08:04:04.976Z,58.2
2018-08-30T08:04:53.992Z,58.2
2018-08-30T08:05:44.047Z,58.2
2018-08-30T08:06:34.356Z,58.1
2018-08-30T08:07:24.764Z,58.2
2018-08-30T08:08:14.769Z,58.1
2018-08-30T08:09:04.851Z,58.1
2018-08-30T08:09:55.189Z,58.1
2018-08-30T08:10:44.704Z,58.1
2018-08-30T08:11:34.813Z,58.1
2018-08-30T08:12:25.343Z,58.1
2018-08-30T08:13:15.433Z,58.1
2018-08-30T08:14:04.901Z,58.1
2018-08-30T08:14:55.281Z,58.1
2018-08-30T08:15:45.044Z,58.1
2018-08-30T08:16:35.683Z,58
2018-08-30T08:17:25.448Z,58
2018-08-30T08:18:15.223Z,58
2018-08-30T08:19:05.799Z,58
2018-08-30T08:19:55.612Z,58
2018-08-30T08:20:45.993Z,58
2018-08-30T08:21:36.073Z,57.9
2018-08-30T08:22:26.162Z,58
2018-08-30T08:23:16.177Z,57.9
2018-08-30T08:24:05.985Z,57.9
2018-08-30T08:24:56.778Z,57.9
2018-08-30T08:25:46.935Z,57.9
2018-08-30T08:26:36.182Z,57.9
2018-08-30T08:27:26.520Z,57.9
2018-08-30T08:28:16.597Z,57.9
2018-08-30T08:29:06.686Z,57.9
2018-08-30T08:29:56.774Z,57.9
2018-08-30T08:30:46.508Z,57.9
2018-08-30T08:31:36.594Z,57.9
2018-08-30T08:32:26.897Z,57.9
2018-08-30T08:33:16.965Z,57.8
2018-08-30T08:34:06.730Z,57.8
2018-08-30T08:34:57.062Z,57.8
2018-08-30T08:35:46.873Z,57.8
2018-08-30T08:36:37.491Z,57.8
2018-08-30T08:37:27.019Z,57.8
2018-08-30T08:40:47.252Z,57.7
2018-08-30T08:41:37.646Z,57.7
2018-08-30T08:42:27.669Z,57.6
2018-08-30T08:43:17.723Z,57.6
2018-08-30T08:44:08.093Z,57.6
2018-08-30T08:44:57.569Z,57.5
2018-08-30T08:45:47.897Z,57.4
2018-08-30T08:46:38.308Z,57.4
2018-08-30T08:47:28.099Z,57.4
2018-08-30T08:48:17.844Z,57.4
2018-08-30T08:49:07.634Z,57.4
2018-08-30T08:49:58.262Z,57.3
2018-08-30T08:50:48.289Z,57.4
2018-08-30T08:51:38.136Z,57.4
2018-08-30T08:52:28.179Z,57.4
2018-08-30T08:53:18.520Z,57.4
2018-08-30T08:54:08.606Z,57.4
2018-08-30T08:54:58.631Z,57.5
2018-08-30T08:55:48.206Z,57.5
2018-08-30T08:56:38.527Z,57.5
2018-08-30T08:57:28.121Z,57.6
2018-08-30T08:58:18.926Z,57.6
2018-08-30T09:14:42.135Z,58.5
2018-08-30T09:17:11.458Z,58.7
2018-08-30T09:18:01.073Z,58.8
2018-08-30T09:18:51.053Z,58.8
2018-08-30T09:19:42.184Z,58.8
2018-08-30T09:20:31.175Z,58.9
2018-08-30T09:21:21.581Z,58.9
2018-08-30T09:22:11.300Z,58.9
2018-08-30T09:23:01.575Z,59
2018-08-30T09:23:52.043Z,59.1
2018-08-30T09:24:41.790Z,59.1
2018-08-30T09:25:32.157Z,59.2
2018-08-30T09:26:22.227Z,59.3
2018-08-30T09:27:13.119Z,59.3
2018-08-30T09:28:01.492Z,59.3
2018-08-30T09:28:52.094Z,59.4
2018-08-30T09:29:42.433Z,59.4
2018-08-30T09:30:32.647Z,59.5
2018-08-30T09:31:22.307Z,59.6
2018-08-30T09:32:12.659Z,59.6
2018-08-30T09:33:02.686Z,59.6
2018-08-30T09:33:52.681Z,59.7
2018-08-30T09:34:42.618Z,59.8
2018-08-30T09:35:32.888Z,59.8
2018-08-30T09:36:22.133Z,59.9
2018-08-30T09:37:13.275Z,59.9
2018-08-30T09:38:02.554Z,60
2018-08-30T09:38:53.289Z,60
2018-08-30T09:39:42.986Z,60.1
2018-08-30T09:40:33.302Z,60.1
2018-08-30T09:41:23.089Z,60.2
2018-08-30T09:42:13.472Z,60.3
2018-08-30T09:43:03.231Z,60.3
2018-08-30T09:43:54.074Z,60.4
2018-08-30T09:44:43.354Z,60.4
2018-08-30T09:45:33.118Z,60.4
2018-08-30T09:46:23.736Z,60.5
2018-08-30T09:47:13.250Z,60.6
2018-08-30T09:48:03.886Z,60.6
2018-08-30T09:48:53.399Z,60.7
2018-08-30T09:49:44.482Z,60.8
2018-08-30T09:50:33.798Z,60.8
2018-08-30T09:51:23.251Z,60.8
2018-08-30T09:52:13.891Z,60.9
2018-08-30T09:53:03.701Z,60.9
2018-08-30T09:53:53.755Z,61
2018-08-30T09:54:44.473Z,61.1
2018-08-30T09:55:34.363Z,61.1
2018-08-30T09:56:24.803Z,61.1
2018-08-30T09:57:15.577Z,61.2
2018-08-30T09:58:04.423Z,61.3
2018-08-30T09:58:54.713Z,61.3
2018-08-30T09:59:44.805Z,61.4
2018-08-30T10:00:34.875Z,61.4
2018-08-30T10:01:24.602Z,61.5
2018-08-30T10:02:15.007Z,61.6
2018-08-30T10:03:04.527Z,61.6
2018-08-30T10:03:56.423Z,61.6
2018-08-30T10:04:46.003Z,61.7
2018-08-30T10:05:34.774Z,61.8
2018-08-30T10:06:25.325Z,61.8
2018-08-30T10:07:15.095Z,61.8
2018-08-30T10:08:05.180Z,61.9
2018-08-30T10:08:54.467Z,61.9
2018-08-30T10:09:45.284Z,62
2018-08-30T10:10:35.659Z,62.1
2018-08-30T10:11:25.707Z,62.1
2018-08-30T10:12:15.493Z,62.2
2018-08-30T10:13:04.993Z,62.3
2018-08-30T10:13:55.894Z,62.3
2018-08-30T10:14:45.681Z,62.4
2018-08-30T10:15:35.866Z,62.4
2018-08-30T10:16:25.344Z,62.4
2018-08-30T10:17:15.940Z,62.5
2018-08-30T10:18:06.179Z,62.6
2018-08-30T10:18:56.279Z,62.6
2018-08-30T10:19:45.784Z,62.7
2018-08-30T10:20:36.131Z,62.7
2018-08-30T10:21:26.509Z,62.8
2018-08-30T10:22:16.645Z,62.8
2018-08-30T10:23:05.865Z,62.9
2018-08-30T10:23:56.160Z,62.9
2018-08-30T10:24:46.754Z,62.9
2018-08-30T10:25:36.671Z,63
2018-08-30T10:26:26.897Z,63.1
2018-08-30T10:27:16.929Z,63.1
2018-08-30T10:28:06.779Z,63.2
2018-08-30T10:28:56.503Z,63.3
2018-08-30T10:29:46.283Z,63.3
2018-08-30T10:30:37.346Z,63.3
2018-08-30T10:31:27.302Z,63.4
2018-08-30T10:32:17.356Z,63.4
2018-08-30T10:33:07.206Z,63.4
2018-08-30T10:33:57.203Z,63.5
2018-08-30T10:34:46.969Z,63.6
2018-08-30T10:35:37.619Z,63.6
2018-08-30T10:36:27.388Z,63.6
2018-08-30T10:37:17.435Z,63.7
2018-08-30T10:38:08.048Z,63.8
2018-08-30T10:38:57.795Z,63.8
2018-08-30T10:39:47.629Z,63.9
2018-08-30T10:40:37.715Z,63.9
2018-08-30T10:41:27.773Z,63.9
2018-08-30T10:42:18.150Z,64
2018-08-30T10:43:08.435Z,64.1
2018-08-30T10:43:57.451Z,64.1
2018-08-30T10:44:48.310Z,64.2
2018-08-30T10:45:37.540Z,64.2
2018-08-30T10:46:27.885Z,64.3
2018-08-30T10:47:17.952Z,64.3
2018-08-30T10:48:08.889Z,64.3
2018-08-30T10:48:58.090Z,64.4
2018-08-30T10:49:48.551Z,64.4
2018-08-30T10:50:38.477Z,64.5
2018-08-30T10:51:28.294Z,64.5
2018-08-30T10:52:18.892Z,64.6
2018-08-30T10:53:08.909Z,64.6
2018-08-30T10:53:59.012Z,64.6
2018-08-30T10:54:48.805Z,64.7
2018-08-30T10:55:38.027Z,64.8
2018-08-30T10:56:30.059Z,64.8
2018-08-30T10:57:19.507Z,64.8
2018-08-30T10:58:10.620Z,64.9
2018-08-30T10:58:59.829Z,64.9
2018-08-30T10:59:49.604Z,65
2018-08-30T11:00:41.506Z,65
2018-08-30T11:01:29.727Z,65.1
2018-08-30T11:02:19.506Z,65.1
2018-08-30T11:03:10.205Z,65.2
2018-08-30T11:04:00.052Z,65.3
2018-08-30T11:04:51.934Z,65.3
2018-08-30T11:05:39.696Z,65.3
2018-08-30T11:06:33.969Z,65.4
2018-08-30T11:07:21.204Z,65.4
2018-08-30T11:08:11.121Z,65.4
2018-08-30T11:08:59.911Z,65.4
2018-08-30T11:09:51.359Z,65.5
2018-08-30T11:10:41.405Z,65.6
2018-08-30T11:11:30.779Z,65.6
2018-08-30T11:12:20.361Z,65.6
2018-08-30T11:13:11.694Z,65.7
2018-08-30T11:14:00.748Z,65.8
2018-08-30T11:14:51.248Z,65.8
2018-08-30T11:15:41.019Z,65.8
2018-08-30T11:16:31.298Z,65.9
2018-08-30T11:17:21.238Z,65.9
2018-08-30T11:18:11.036Z,65.9
2018-08-30T11:19:00.920Z,66
2018-08-30T11:19:50.783Z,66
2018-08-30T11:20:41.114Z,66.1
2018-08-30T11:21:31.700Z,66.1
2018-08-30T11:22:21.466Z,66.1
2018-08-30T11:23:11.254Z,66.2
2018-08-30T11:24:03.143Z,66.2
2018-08-30T11:24:52.395Z,66.3
2018-08-30T11:25:41.675Z,66.3
2018-08-30T11:26:31.925Z,66.3
2018-08-30T11:27:21.098Z,66.4
2018-08-30T11:28:11.140Z,66.4
2018-08-30T11:29:02.125Z,66.4
2018-08-30T11:29:51.310Z,66.5
2018-08-30T11:30:41.337Z,66.6
2018-08-30T11:31:31.691Z,66.6
2018-08-30T11:32:21.734Z,66.6
2018-08-30T11:33:12.007Z,66.6
2018-08-30T11:34:02.185Z,66.7
2018-08-30T11:34:52.250Z,66.8
2018-08-30T11:35:42.320Z,66.8
2018-08-30T11:36:32.317Z,66.8
2018-08-30T11:37:22.412Z,66.9
2018-08-30T11:38:11.969Z,66.9
2018-08-30T11:39:01.434Z,66.9
2018-08-30T11:39:52.593Z,67
2018-08-30T11:40:42.447Z,67
2018-08-30T11:41:34.443Z,67.1
2018-08-30T11:42:22.733Z,67.1
2018-08-30T11:43:12.732Z,67.1
2018-08-30T11:44:03.247Z,67.1
2018-08-30T11:44:52.752Z,67.2
2018-08-30T11:45:43.479Z,67.3
2018-08-30T11:46:33.291Z,67.3
2018-08-30T11:47:22.928Z,67.3
2018-08-30T11:48:12.706Z,67.3
2018-08-30T11:49:02.799Z,67.4
2018-08-30T11:49:52.811Z,67.4
2018-08-30T11:50:42.899Z,67.4
2018-08-30T11:51:33.531Z,67.5
2018-08-30T11:52:23.838Z,67.5
2018-08-30T11:53:13.148Z,67.6
2018-08-30T11:54:03.511Z,67.6
2018-08-30T11:54:53.498Z,67.6
2018-08-30T11:55:43.837Z,67.7
2018-08-30T11:56:33.940Z,67.7
2018-08-30T11:57:23.712Z,67.8
2018-08-30T11:58:13.750Z,67.8
2018-08-30T11:59:04.163Z,67.8
2018-08-30T11:59:54.180Z,67.8
2018-08-30T12:00:44.307Z,67.9
2018-08-30T12:01:34.028Z,67.9
2018-08-30T12:02:24.599Z,67.9
2018-08-30T12:03:13.663Z,68
2018-08-30T12:04:04.218Z,68
2018-08-30T12:04:54.882Z,68.1
2018-08-30T12:05:44.047Z,68.1
2018-08-30T12:06:34.141Z,68.1
2018-08-30T12:07:24.223Z,68.1
2018-08-30T12:08:14.896Z,68.1
2018-08-30T12:09:04.322Z,68.2
2018-08-30T12:10:10.030Z,68.3
2018-08-30T12:10:45.657Z,68.3
2018-08-30T12:11:34.962Z,68.3
2018-08-30T12:12:25.175Z,68.3
2018-08-30T12:13:14.940Z,68.3
2018-08-30T12:14:04.452Z,68.4
2018-08-30T12:14:54.499Z,68.4
2018-08-30T12:15:45.125Z,68.4
2018-08-30T12:16:35.513Z,68.4
2018-08-30T12:17:25.584Z,68.4
2018-08-30T12:18:16.047Z,68.5
2018-08-30T12:19:04.925Z,68.5
2018-08-30T12:19:55.768Z,68.6
2018-08-30T12:20:46.599Z,68.6
2018-08-30T12:21:50.768Z,68.6
2018-08-30T12:22:26.179Z,68.6
2018-08-30T12:23:15.962Z,68.6
2018-08-30T12:24:06.051Z,68.7
2018-08-30T12:24:55.598Z,68.7
2018-08-30T12:25:46.166Z,68.7
2018-08-30T12:26:35.986Z,68.8
2018-08-30T12:27:26.149Z,68.8
2018-08-30T12:28:16.124Z,68.8
2018-08-30T12:29:06.824Z,68.8
2018-08-30T12:29:56.492Z,68.8
2018-08-30T12:30:46.581Z,68.8
2018-08-30T12:31:37.515Z,68.8
2018-08-30T12:32:27.047Z,68.9
2018-08-30T12:33:16.864Z,68.9
2018-08-30T12:34:07.494Z,68.9
2018-08-30T12:34:57.419Z,68.9
2018-08-30T12:35:47.580Z,68.9
2018-08-30T12:36:37.011Z,68.9
2018-08-30T12:37:27.494Z,68.9
2018-08-30T12:38:17.618Z,69
2018-08-30T12:39:07.341Z,69
2018-08-30T12:39:57.819Z,69
2018-08-30T12:40:46.859Z,69.1
2018-08-30T12:41:37.477Z,69.1
2018-08-30T12:42:27.057Z,69.1
2018-08-30T12:43:17.574Z,69.1
2018-08-30T12:44:07.634Z,69.1
2018-08-30T12:44:57.704Z,69.1
2018-08-30T12:45:46.895Z,69.1
2018-08-30T12:46:38.045Z,69.1
2018-08-30T12:47:27.511Z,69.1
2018-08-30T12:48:17.822Z,69.2
2018-08-30T12:49:07.931Z,69.2
2018-08-30T12:49:58.370Z,69.2
2018-08-30T12:50:50.041Z,69.2
2018-08-30T12:51:41.845Z,69.2
2018-08-30T12:52:29.195Z,69.3
2018-08-30T12:53:19.601Z,69.2
2018-08-30T12:54:10.946Z,69.3
2018-08-30T12:54:59.616Z,69.3
2018-08-30T12:55:49.772Z,69.3
2018-08-30T12:56:39.402Z,69.3
2018-08-30T12:57:29.885Z,69.3
2018-08-30T12:58:21.355Z,69.3
2018-08-30T12:59:09.042Z,69.3
2018-08-30T13:00:00.884Z,69.3
2018-08-30T13:00:49.438Z,69.3
2018-08-30T13:01:40.296Z,69.3
2018-08-30T13:02:30.681Z,69.3
2018-08-30T13:03:21.386Z,69.4
2018-08-30T13:04:10.301Z,69.4
2018-08-30T13:05:02.621Z,69.4
2018-08-30T13:05:53.174Z,69.4
2018-08-30T13:06:40.300Z,69.4
2018-08-30T13:07:31.857Z,69.4
2018-08-30T13:08:22.118Z,69.4
2018-08-30T13:09:14.783Z,69.4
2018-08-30T13:10:03.207Z,69.4
2018-08-30T13:10:52.276Z,69.4
2018-08-30T13:11:42.021Z,69.4
2018-08-30T13:12:33.300Z,69.4
2018-08-30T13:13:22.446Z,69.4
2018-08-30T13:14:13.717Z,69.4
2018-08-30T13:15:03.556Z,69.4
2018-08-30T13:15:51.247Z,69.4
2018-08-30T13:16:43.074Z,69.4
2018-08-30T13:17:31.705Z,69.4
2018-08-30T13:18:22.410Z,69.4
2018-08-30T13:19:15.413Z,69.4
2018-08-30T13:20:03.277Z,69.4
2018-08-30T13:20:53.715Z,69.4
2018-08-30T13:21:43.924Z,69.4
2018-08-30T13:22:36.242Z,69.4
2018-08-30T13:23:24.476Z,69.4
2018-08-30T13:24:12.677Z,69.4
2018-08-30T13:25:06.445Z,69.4
2018-08-30T13:25:53.833Z,69.4
2018-08-30T13:26:41.827Z,69.4
2018-08-30T13:27:35.455Z,69.4
2018-08-30T13:28:24.007Z,69.4
2018-08-30T13:29:13.238Z,69.4
2018-08-30T13:30:04.197Z,69.4
2018-08-30T13:30:56.175Z,69.4
2018-08-30T13:31:46.371Z,69.4
2018-08-30T13:32:36.001Z,69.4
2018-08-30T13:33:27.749Z,69.4
2018-08-30T13:34:17.469Z,69.4
2018-08-30T13:35:09.669Z,69.4
2018-08-30T13:35:56.353Z,69.4
2018-08-30T13:36:46.557Z,69.4
2018-08-30T13:37:34.858Z,69.4
2018-08-30T13:38:24.766Z,69.4
2018-08-30T13:39:17.337Z,69.4
2018-08-30T13:40:07.732Z,69.4
2018-08-30T13:40:57.436Z,69.4
2018-08-30T13:41:46.519Z,69.4
2018-08-30T13:42:37.216Z,69.4
2018-08-30T13:43:26.073Z,69.4
2018-08-30T13:44:17.475Z,69.3
2018-08-30T13:45:06.962Z,69.4
2018-08-30T13:45:58.627Z,69.3
2018-08-30T13:46:45.325Z,69.4
2018-08-30T13:47:37.678Z,69.3
2018-08-30T13:48:26.750Z,69.3
2018-08-30T13:49:16.650Z,69.3
2018-08-30T13:50:06.719Z,69.3
2018-08-30T13:50:57.990Z,69.3
2018-08-30T13:51:47.740Z,69.3
2018-08-30T13:52:34.348Z,69.3
2018-08-30T13:53:29.250Z,69.3
2018-08-30T13:54:16.671Z,69.3
2018-08-30T13:55:07.817Z,69.3
2018-08-30T13:55:57.307Z,69.3
2018-08-30T13:56:48.315Z,69.3
2018-08-30T13:57:41.100Z,69.3
2018-08-30T13:58:27.998Z,69.3
2018-08-30T13:59:19.229Z,69.3
2018-08-30T14:00:11.760Z,69.3
2018-08-30T14:00:59.481Z,69.3
2018-08-30T14:01:48.864Z,69.3
2018-08-30T14:02:35.903Z,69.3
2018-08-30T14:03:27.101Z,69.3
2018-08-30T14:04:18.145Z,69.2
2018-08-30T14:05:07.065Z,69.2
2018-08-30T14:05:57.163Z,69.2
2018-08-30T14:06:47.985Z,69.2
2018-08-30T14:07:36.398Z,69.2
2018-08-30T14:08:27.747Z,69.2
2018-08-30T14:09:18.275Z,69.2
2018-08-30T14:10:09.518Z,69.2
2018-08-30T14:10:57.359Z,69.2
2018-08-30T14:11:49.218Z,69.2
2018-08-30T14:12:37.860Z,69.2
2018-08-30T14:13:28.510Z,69.1
2018-08-30T14:14:16.342Z,69.1
2018-08-30T14:15:07.813Z,69.1
2018-08-30T14:15:54.879Z,69.1
2018-08-30T14:16:45.527Z,69.1
2018-08-30T14:17:35.062Z,69.1
2018-08-30T14:18:25.249Z,69.1
2018-08-30T14:19:15.772Z,69.1
2018-08-30T14:20:05.509Z,69.1
2018-08-30T14:20:55.258Z,69.1
2018-08-30T14:21:45.430Z,69.1
2018-08-30T14:22:35.396Z,69.1
2018-08-30T14:23:25.614Z,69.1
2018-08-30T14:24:15.367Z,69.1
2018-08-30T14:25:05.965Z,69.1
2018-08-30T14:25:55.364Z,69.1
2018-08-30T14:26:46.003Z,69.1
2018-08-30T14:27:35.491Z,69.1
2018-08-30T14:28:25.029Z,69.1
2018-08-30T14:29:15.399Z,69.1
2018-08-30T14:30:05.869Z,69.1
2018-08-30T14:30:55.828Z,69.1
2018-08-30T14:31:46.292Z,69
2018-08-30T14:32:36.157Z,69
2018-08-30T14:33:25.369Z,69
2018-08-30T14:34:15.981Z,69
2018-08-30T14:35:06.486Z,69
2018-08-30T14:35:56.324Z,69
2018-08-30T14:36:46.743Z,69
2018-08-30T14:37:36.771Z,69
2018-08-30T14:38:26.808Z,69
2018-08-30T14:39:17.335Z,68.9
2018-08-30T14:40:07.139Z,68.9
2018-08-30T14:41:12.657Z,68.9
2018-08-30T14:41:48.558Z,68.9
2018-08-30T14:42:36.887Z,68.9
2018-08-30T14:43:26.481Z,68.9
2018-08-30T14:44:17.122Z,68.9
2018-08-30T14:45:07.217Z,68.9
2018-08-30T14:45:57.099Z,68.9
2018-08-30T14:46:46.681Z,68.9
2018-08-30T14:47:39.543Z,68.9
2018-08-30T14:48:27.185Z,68.9
2018-08-30T14:49:17.040Z,68.9
2018-08-30T14:50:07.353Z,68.9
2018-08-30T14:50:57.953Z,68.9
2018-08-30T14:51:47.893Z,68.9
2018-08-30T14:52:37.352Z,68.9
2018-08-30T14:53:29.362Z,68.9
2018-08-30T14:54:18.482Z,68.9
2018-08-30T14:55:07.694Z,68.9
2018-08-30T14:55:57.603Z,68.8
2018-08-30T14:56:48.095Z,68.8
2018-08-30T14:57:37.594Z,68.8
2018-08-30T14:58:27.852Z,68.8
2018-08-30T14:59:18.454Z,68.8
2018-08-30T15:00:08.563Z,68.8
2018-08-30T15:00:57.411Z,68.8
2018-08-30T15:01:48.174Z,68.8
2018-08-30T15:02:38.012Z,68.8
2018-08-30T15:03:28.343Z,68.8
2018-08-30T15:04:18.631Z,68.8
2018-08-30T15:05:08.874Z,68.8
2018-08-30T15:06:00.599Z,68.8
2018-08-30T15:06:48.822Z,68.8
2018-08-30T15:07:38.579Z,68.8
2018-08-30T15:08:28.884Z,68.8
2018-08-30T15:09:18.979Z,68.8
2018-08-30T15:10:08.522Z,68.8
2018-08-30T15:10:58.326Z,68.8
2018-08-30T15:11:49.125Z,68.8
2018-08-30T15:12:40.113Z,68.7
2018-08-30T15:13:29.503Z,68.7
2018-08-30T15:14:19.346Z,68.7
2018-08-30T15:15:09.334Z,68.7
2018-08-30T15:15:59.551Z,68.7
2018-08-30T15:16:49.346Z,68.7
2018-08-30T15:17:39.392Z,68.7
2018-08-30T15:18:30.133Z,68.7
2018-08-30T15:19:19.885Z,68.7
2018-08-30T15:20:10.404Z,68.7
2018-08-30T15:20:59.407Z,68.7
2018-08-30T15:21:49.817Z,68.6
2018-08-30T15:22:40.168Z,68.6
2018-08-30T15:23:30.858Z,68.6
2018-08-30T15:24:19.966Z,68.6
2018-08-30T15:25:09.963Z,68.6
2018-08-30T15:25:59.223Z,68.6
2018-08-30T15:26:51.422Z,68.6
2018-08-30T15:27:39.755Z,68.6
2018-08-30T15:28:30.212Z,68.6
2018-08-30T15:29:21.705Z,68.6
2018-08-30T15:30:10.375Z,68.6
2018-08-30T15:31:00.429Z,68.6
2018-08-30T15:31:50.632Z,68.6
2018-08-30T15:32:40.353Z,68.6
2018-08-30T15:33:30.943Z,68.6
2018-08-30T15:34:20.435Z,68.6
2018-08-30T15:35:13.565Z,68.6
2018-08-30T15:36:00.839Z,68.5
2018-08-30T15:36:51.362Z,68.6
2018-08-30T15:37:40.736Z,68.6
2018-08-30T15:38:32.199Z,68.5
2018-08-30T15:39:21.382Z,68.5
2018-08-30T15:40:26.364Z,68.5
2018-08-30T15:41:00.749Z,68.5
2018-08-30T15:41:51.059Z,68.5
2018-08-30T15:42:41.739Z,68.5
2018-08-30T15:43:31.550Z,68.5
2018-08-30T15:44:21.599Z,68.4
2018-08-30T15:45:11.475Z,68.4
2018-08-30T15:46:01.992Z,68.4
2018-08-30T15:46:51.949Z,68.4
2018-08-30T15:47:41.862Z,68.4
2018-08-30T15:48:32.343Z,68.4
2018-08-30T15:49:22.314Z,68.4
2018-08-30T15:50:12.494Z,68.4
2018-08-30T15:51:02.396Z,68.4
2018-08-30T15:51:52.193Z,68.4
2018-08-30T15:52:42.465Z,68.4
2018-08-30T15:53:32.369Z,68.4
2018-08-30T15:54:22.589Z,68.4
2018-08-30T15:55:12.733Z,68.4
2018-08-30T15:56:03.702Z,68.4
2018-08-30T15:56:52.755Z,68.4
2018-08-30T16:15:37.356Z,68.3
2018-08-30T16:16:27.706Z,68.2
2018-08-30T16:17:19.755Z,68.2
2018-08-30T16:18:06.952Z,68.2
2018-08-30T16:18:57.951Z,68.2
2018-08-30T16:19:48.146Z,68.2
2018-08-30T16:20:38.461Z,68.2
2018-08-30T16:21:28.349Z,68.2
2018-08-30T16:22:18.292Z,68.2
2018-08-30T16:23:09.012Z,68.2
2018-08-30T16:23:58.527Z,68.1
2018-08-30T16:24:49.251Z,68.1
2018-08-30T16:25:39.174Z,68.1
2018-08-30T16:26:29.082Z,68.1
2018-08-30T16:27:17.932Z,68.1
2018-08-30T16:28:08.979Z,68.1
2018-08-30T16:28:59.334Z,68.1
2018-08-30T16:29:48.181Z,68.1
2018-08-30T16:30:39.603Z,68.1
2018-08-30T16:31:29.914Z,68.1
2018-08-30T16:32:18.748Z,68.1
2018-08-30T16:33:08.938Z,68.1
2018-08-30T16:33:58.743Z,68.1
2018-08-30T16:34:49.616Z,68.1
2018-08-30T16:35:39.177Z,68.1
2018-08-30T16:36:29.662Z,68.1
2018-08-30T16:37:19.360Z,68.1
2018-08-30T16:38:09.216Z,68.1
2018-08-30T16:38:58.860Z,68.1
2018-08-30T16:39:50.385Z,68
2018-08-30T16:40:39.321Z,68
2018-08-30T16:41:30.704Z,68
2018-08-30T16:42:19.737Z,68
2018-08-30T16:43:10.958Z,68
2018-08-30T16:43:59.847Z,68
2018-08-30T16:44:50.239Z,68
2018-08-30T16:45:39.667Z,68
2018-08-30T16:46:30.434Z,67.9
2018-08-30T16:47:21.513Z,67.9
2018-08-30T16:48:10.152Z,68
2018-08-30T16:49:01.137Z,67.9
2018-08-30T16:49:50.094Z,67.9
2018-08-30T16:50:40.439Z,67.9
2018-08-30T16:51:30.708Z,67.9
2018-08-30T16:52:20.149Z,67.9
2018-08-30T16:53:11.807Z,67.9
2018-08-30T16:54:01.249Z,67.9
2018-08-30T16:54:50.109Z,67.9
2018-08-30T16:55:42.625Z,67.9
2018-08-30T16:56:31.180Z,67.9
2018-08-30T16:57:21.133Z,67.9
2018-08-30T16:58:10.379Z,67.9
2018-08-30T16:59:01.691Z,67.9
2018-08-30T16:59:51.064Z,67.9
2018-08-30T17:00:41.119Z,67.9
2018-08-30T17:01:31.079Z,67.9
2018-08-30T17:02:23.114Z,67.8
2018-08-30T17:03:10.735Z,67.8
2018-08-30T17:04:02.019Z,67.8
2018-08-30T17:04:51.766Z,67.8
2018-08-30T17:05:41.284Z,67.8
2018-08-30T17:06:32.145Z,67.8
2018-08-30T17:07:21.777Z,67.8
2018-08-30T17:08:11.576Z,67.8
2018-08-30T17:09:01.588Z,67.8
2018-08-30T17:09:51.864Z,67.8
2018-08-30T17:10:41.460Z,67.8
2018-08-30T17:11:31.488Z,67.8
2018-08-30T17:12:21.763Z,67.8
2018-08-30T17:13:12.410Z,67.8
2018-08-30T17:14:02.047Z,67.8
2018-08-30T17:14:52.454Z,67.8
2018-08-30T17:15:42.473Z,67.8
2018-08-30T17:16:32.454Z,67.8
2018-08-30T17:17:23.015Z,67.7
2018-08-30T17:18:14.210Z,67.7
2018-08-30T17:19:02.313Z,67.7
2018-08-30T17:19:52.039Z,67.7
2018-08-30T17:20:43.150Z,67.7
2018-08-30T17:21:34.128Z,67.7
2018-08-30T17:22:23.086Z,67.7
2018-08-30T17:23:12.900Z,67.7
2018-08-30T17:24:03.261Z,67.7
2018-08-30T17:24:53.587Z,67.6
2018-08-30T17:25:42.796Z,67.6
2018-08-30T17:26:33.142Z,67.6
2018-08-30T17:27:23.079Z,67.6
2018-08-30T17:28:13.282Z,67.6
2018-08-30T17:29:03.725Z,67.6
2018-08-30T17:29:53.116Z,67.6
2018-08-30T17:30:43.740Z,67.6
2018-08-30T17:31:33.577Z,67.6
2018-08-30T17:32:23.272Z,67.6
2018-08-30T17:33:14.101Z,67.6
2018-08-30T17:34:04.044Z,67.6
2018-08-30T17:34:53.796Z,67.6
2018-08-30T17:35:44.144Z,67.6
2018-08-30T17:36:33.917Z,67.6
2018-08-30T17:37:23.988Z,67.6
2018-08-30T17:38:14.324Z,67.6
2018-08-30T17:39:04.916Z,67.6
2018-08-30T17:39:54.204Z,67.6
2018-08-30T17:40:44.337Z,67.5
2018-08-30T17:41:34.619Z,67.5
2018-08-30T17:42:25.499Z,67.5
2018-08-30T17:43:14.258Z,67.5
2018-08-30T17:44:04.891Z,67.5
2018-08-30T17:44:54.570Z,67.5
2018-08-30T17:45:45.361Z,67.5
2018-08-30T17:46:34.471Z,67.5
2018-08-30T17:47:25.127Z,67.5
2018-08-30T17:48:15.223Z,67.5
2018-08-30T17:49:04.656Z,67.4
2018-08-30T17:49:55.352Z,67.4
2018-08-30T17:50:45.341Z,67.4
2018-08-30T17:51:34.649Z,67.4
2018-08-30T17:52:24.898Z,67.4
2018-08-30T17:53:14.906Z,67.4
2018-08-30T17:54:05.605Z,67.4
2018-08-30T17:54:55.713Z,67.4
2018-08-30T17:55:45.804Z,67.4
2018-08-30T17:56:35.526Z,67.4
2018-08-30T17:57:25.592Z,67.4
2018-08-30T17:58:15.700Z,67.4
2018-08-30T17:59:05.987Z,67.4
2018-08-30T17:59:57.402Z,67.4
2018-08-30T18:00:45.593Z,67.4
2018-08-30T18:01:36.761Z,67.4
2018-08-30T18:02:25.690Z,67.4
2018-08-30T18:03:17.151Z,67.4
2018-08-30T18:04:06.218Z,67.3
2018-08-30T18:04:56.172Z,67.3
2018-08-30T18:05:46.553Z,67.3
2018-08-30T18:06:36.813Z,67.3
2018-08-30T18:07:25.782Z,67.3
2018-08-30T18:08:16.688Z,67.3
2018-08-30T18:09:06.642Z,67.3
2018-08-30T18:09:57.096Z,67.3
2018-08-30T18:10:46.319Z,67.3
2018-08-30T18:11:36.422Z,67.3
2018-08-30T18:12:27.343Z,67.3
2018-08-30T18:13:16.231Z,67.3
2018-08-30T18:14:06.837Z,67.3
2018-08-30T18:14:57.217Z,67.3
2018-08-30T18:15:47.004Z,67.3
2018-08-30T18:16:37.037Z,67.3
2018-08-30T18:17:27.112Z,67.2
2018-08-30T18:18:17.199Z,67.2
2018-08-30T18:19:07.507Z,67.2
2018-08-30T18:19:57.853Z,67.2
2018-08-30T18:20:47.661Z,67.2